sensor_id;sensor_type;location;lat;lon;timestamp;P1;durP1;ratioP1;P2;durP2;ratioP2
27985;SDS011;15453;53.692;10.168;2023-04-25T00:00:13;8.02;;;3.55;;
27985;SDS011;15453;53.692;10.168;2023-04-25T00:02:38;8.25;;;3.17;;
27985;SDS011;15453;53.692;10.168;2023-04-25T00:05:04;9.05;;;3.10;;
27985;SDS011;15453;53.692;10.168;2023-04-25T00:07:30;6.88;;;3.20;;
27985;SDS011;15453;53.692;10.168;2023-04-25T00:09:56;8.88;;;3.33;;
27985;SDS011;15453;53.692;10.168;2023-04-25T00:12:21;12.35;;;3.55;;
27985;SDS011;15453;53.692;10.168;2023-04-25T00:14:47;14.07;;;4.05;;
27985;SDS011;15453;53.692;10.168;2023-04-25T00:17:14;10.25;;;3.67;;
27985;SDS011;15453;53.692;10.168;2023-04-25T00:19:40;12.32;;;3.67;;
27985;SDS011;15453;53.692;10.168;2023-04-25T00:22:05;19.75;;;3.83;;
27985;SDS011;15453;53.692;10.168;2023-04-25T00:24:30;22.58;;;4.00;;
27985;SDS011;15453;53.692;10.168;2023-04-25T00:26:56;16.80;;;3.38;;
27985;SDS011;15453;53.692;10.168;2023-04-25T00:29:21;16.65;;;3.65;;
27985;SDS011;15453;53.692;10.168;2023-04-25T00:31:46;20.73;;;4.97;;
27985;SDS011;15453;53.692;10.168;2023-04-25T00:34:11;18.38;;;4.10;;
27985;SDS011;15453;53.692;10.168;2023-04-25T00:36:37;16.58;;;4.18;;
27985;SDS011;15453;53.692;10.168;2023-04-25T00:39:03;17.88;;;3.80;;
27985;SDS011;15453;53.692;10.168;2023-04-25T00:41:29;25.30;;;3.83;;
27985;SDS011;15453;53.692;10.168;2023-04-25T00:43:55;14.48;;;3.67;;
27985;SDS011;15453;53.692;10.168;2023-04-25T00:46:21;18.05;;;3.80;;
27985;SDS011;15453;53.692;10.168;2023-04-25T00:48:46;14.23;;;3.40;;
27985;SDS011;15453;53.692;10.168;2023-04-25T00:51:19;12.43;;;3.58;;
27985;SDS011;15453;53.692;10.168;2023-04-25T00:53:46;18.58;;;3.67;;
27985;SDS011;15453;53.692;10.168;2023-04-25T00:56:12;17.05;;;3.47;;
27985;SDS011;15453;53.692;10.168;2023-04-25T00:58:38;18.45;;;3.50;;
27985;SDS011;15453;53.692;10.168;2023-04-25T01:01:05;19.38;;;4.50;;
27985;SDS011;15453;53.692;10.168;2023-04-25T01:03:32;21.45;;;4.25;;
27985;SDS011;15453;53.692;10.168;2023-04-25T01:06:00;15.80;;;4.32;;
27985;SDS011;15453;53.692;10.168;2023-04-25T01:08:26;20.23;;;3.80;;
27985;SDS011;15453;53.692;10.168;2023-04-25T01:10:52;24.27;;;4.35;;
27985;SDS011;15453;53.692;10.168;2023-04-25T01:13:17;13.30;;;3.00;;
27985;SDS011;15453;53.692;10.168;2023-04-25T01:15:42;19.77;;;3.53;;
27985;SDS011;15453;53.692;10.168;2023-04-25T01:18:08;17.70;;;3.50;;
27985;SDS011;15453;53.692;10.168;2023-04-25T01:20:34;16.00;;;3.90;;
27985;SDS011;15453;53.692;10.168;2023-04-25T01:23:02;23.73;;;4.18;;
27985;SDS011;15453;53.692;10.168;2023-04-25T01:25:28;17.30;;;3.72;;
27985;SDS011;15453;53.692;10.168;2023-04-25T01:27:54;29.42;;;6.07;;
27985;SDS011;15453;53.692;10.168;2023-04-25T01:30:20;20.85;;;3.88;;
27985;SDS011;15453;53.692;10.168;2023-04-25T01:32:45;22.00;;;4.00;;
27985;SDS011;15453;53.692;10.168;2023-04-25T01:35:13;27.98;;;4.45;;
27985;SDS011;15453;53.692;10.168;2023-04-25T01:37:42;27.42;;;5.93;;
27985;SDS011;15453;53.692;10.168;2023-04-25T01:40:08;19.55;;;4.43;;
27985;SDS011;15453;53.692;10.168;2023-04-25T01:42:36;19.52;;;4.15;;
27985;SDS011;15453;53.692;10.168;2023-04-25T01:45:03;16.08;;;3.72;;
27985;SDS011;15453;53.692;10.168;2023-04-25T01:47:28;20.17;;;4.18;;
27985;SDS011;15453;53.692;10.168;2023-04-25T01:49:54;16.63;;;3.42;;
27985;SDS011;15453;53.692;10.168;2023-04-25T01:52:19;18.17;;;4.40;;
27985;SDS011;15453;53.692;10.168;2023-04-25T01:54:45;23.55;;;4.38;;
27985;SDS011;15453;53.692;10.168;2023-04-25T01:57:11;21.58;;;4.60;;
27985;SDS011;15453;53.692;10.168;2023-04-25T01:59:36;24.02;;;4.07;;
27985;SDS011;15453;53.692;10.168;2023-04-25T02:02:02;19.35;;;4.10;;
27985;SDS011;15453;53.692;10.168;2023-04-25T02:04:29;17.27;;;3.35;;
27985;SDS011;15453;53.692;10.168;2023-04-25T02:06:57;25.98;;;5.63;;
27985;SDS011;15453;53.692;10.168;2023-04-25T02:09:22;26.00;;;4.70;;
27985;SDS011;15453;53.692;10.168;2023-04-25T02:11:48;18.42;;;3.80;;
27985;SDS011;15453;53.692;10.168;2023-04-25T02:14:13;24.58;;;4.57;;
27985;SDS011;15453;53.692;10.168;2023-04-25T02:16:39;16.83;;;3.85;;
27985;SDS011;15453;53.692;10.168;2023-04-25T02:19:04;19.65;;;4.65;;
27985;SDS011;15453;53.692;10.168;2023-04-25T02:21:30;19.30;;;4.25;;
27985;SDS011;15453;53.692;10.168;2023-04-25T02:23:56;19.50;;;3.95;;
27985;SDS011;15453;53.692;10.168;2023-04-25T02:26:22;17.42;;;4.38;;
27985;SDS011;15453;53.692;10.168;2023-04-25T02:28:48;20.05;;;4.40;;
27985;SDS011;15453;53.692;10.168;2023-04-25T02:31:14;18.70;;;4.75;;
27985;SDS011;15453;53.692;10.168;2023-04-25T02:33:39;23.40;;;4.60;;
27985;SDS011;15453;53.692;10.168;2023-04-25T02:36:05;21.15;;;4.43;;
27985;SDS011;15453;53.692;10.168;2023-04-25T02:38:30;20.60;;;3.70;;
27985;SDS011;15453;53.692;10.168;2023-04-25T02:40:55;20.85;;;4.85;;
27985;SDS011;15453;53.692;10.168;2023-04-25T02:43:21;18.90;;;3.65;;
27985;SDS011;15453;53.692;10.168;2023-04-25T02:45:47;19.92;;;4.57;;
27985;SDS011;15453;53.692;10.168;2023-04-25T02:48:12;19.30;;;4.10;;
27985;SDS011;15453;53.692;10.168;2023-04-25T02:50:37;22.30;;;3.97;;
27985;SDS011;15453;53.692;10.168;2023-04-25T02:53:02;17.75;;;3.80;;
27985;SDS011;15453;53.692;10.168;2023-04-25T02:55:28;16.02;;;3.63;;
27985;SDS011;15453;53.692;10.168;2023-04-25T02:57:53;22.73;;;4.60;;
27985;SDS011;15453;53.692;10.168;2023-04-25T03:00:20;19.67;;;4.13;;
27985;SDS011;15453;53.692;10.168;2023-04-25T03:02:45;16.45;;;3.83;;
27985;SDS011;15453;53.692;10.168;2023-04-25T03:05:11;15.90;;;3.63;;
27985;SDS011;15453;53.692;10.168;2023-04-25T03:07:36;21.63;;;4.70;;
27985;SDS011;15453;53.692;10.168;2023-04-25T03:10:01;22.42;;;4.30;;
27985;SDS011;15453;53.692;10.168;2023-04-25T03:12:27;18.83;;;4.45;;
27985;SDS011;15453;53.692;10.168;2023-04-25T03:14:52;25.80;;;5.07;;
27985;SDS011;15453;53.692;10.168;2023-04-25T03:17:17;23.42;;;4.70;;
27985;SDS011;15453;53.692;10.168;2023-04-25T03:19:43;23.77;;;4.75;;
27985;SDS011;15453;53.692;10.168;2023-04-25T03:22:08;29.83;;;4.35;;
27985;SDS011;15453;53.692;10.168;2023-04-25T03:24:33;22.60;;;3.92;;
27985;SDS011;15453;53.692;10.168;2023-04-25T03:26:58;19.15;;;3.70;;
27985;SDS011;15453;53.692;10.168;2023-04-25T03:29:23;23.20;;;4.53;;
27985;SDS011;15453;53.692;10.168;2023-04-25T03:31:51;16.40;;;3.50;;
27985;SDS011;15453;53.692;10.168;2023-04-25T03:34:16;16.65;;;3.83;;
27985;SDS011;15453;53.692;10.168;2023-04-25T03:36:41;22.52;;;3.75;;
27985;SDS011;15453;53.692;10.168;2023-04-25T03:39:07;20.67;;;4.93;;
27985;SDS011;15453;53.692;10.168;2023-04-25T03:41:32;20.88;;;4.47;;
27985;SDS011;15453;53.692;10.168;2023-04-25T03:43:57;26.92;;;4.45;;
27985;SDS011;15453;53.692;10.168;2023-04-25T03:46:22;15.35;;;4.00;;
27985;SDS011;15453;53.692;10.168;2023-04-25T03:48:48;14.90;;;4.05;;
27985;SDS011;15453;53.692;10.168;2023-04-25T03:51:13;24.13;;;4.10;;
27985;SDS011;15453;53.692;10.168;2023-04-25T03:53:38;17.20;;;3.42;;
27985;SDS011;15453;53.692;10.168;2023-04-25T03:56:03;17.35;;;3.38;;
27985;SDS011;15453;53.692;10.168;2023-04-25T03:58:29;15.27;;;3.72;;
27985;SDS011;15453;53.692;10.168;2023-04-25T04:00:54;20.15;;;3.92;;
27985;SDS011;15453;53.692;10.168;2023-04-25T04:03:20;17.70;;;4.47;;
27985;SDS011;15453;53.692;10.168;2023-04-25T04:05:45;12.50;;;3.60;;
27985;SDS011;15453;53.692;10.168;2023-04-25T04:08:11;18.50;;;3.50;;
27985;SDS011;15453;53.692;10.168;2023-04-25T04:10:36;18.08;;;4.20;;
27985;SDS011;15453;53.692;10.168;2023-04-25T04:13:01;19.73;;;3.58;;
27985;SDS011;15453;53.692;10.168;2023-04-25T04:15:27;19.88;;;4.85;;
27985;SDS011;15453;53.692;10.168;2023-04-25T04:17:52;13.98;;;3.25;;
27985;SDS011;15453;53.692;10.168;2023-04-25T04:20:19;17.98;;;3.63;;
27985;SDS011;15453;53.692;10.168;2023-04-25T04:22:44;18.23;;;3.40;;
27985;SDS011;15453;53.692;10.168;2023-04-25T04:25:09;19.17;;;4.10;;
27985;SDS011;15453;53.692;10.168;2023-04-25T04:27:36;12.93;;;3.33;;
27985;SDS011;15453;53.692;10.168;2023-04-25T04:30:02;27.17;;;4.47;;
27985;SDS011;15453;53.692;10.168;2023-04-25T04:32:28;16.45;;;4.07;;
27985;SDS011;15453;53.692;10.168;2023-04-25T04:34:55;18.10;;;3.13;;
27985;SDS011;15453;53.692;10.168;2023-04-25T04:37:20;22.17;;;3.75;;
27985;SDS011;15453;53.692;10.168;2023-04-25T04:39:49;17.25;;;3.67;;
27985;SDS011;15453;53.692;10.168;2023-04-25T04:42:15;12.63;;;3.50;;
27985;SDS011;15453;53.692;10.168;2023-04-25T04:44:40;19.92;;;4.20;;
27985;SDS011;15453;53.692;10.168;2023-04-25T04:47:05;15.25;;;3.67;;
27985;SDS011;15453;53.692;10.168;2023-04-25T04:49:31;15.98;;;3.55;;
27985;SDS011;15453;53.692;10.168;2023-04-25T04:51:56;15.57;;;3.20;;
27985;SDS011;15453;53.692;10.168;2023-04-25T04:54:21;17.52;;;3.60;;
27985;SDS011;15453;53.692;10.168;2023-04-25T04:56:46;14.13;;;3.17;;
27985;SDS011;15453;53.692;10.168;2023-04-25T04:59:12;19.60;;;4.38;;
27985;SDS011;15453;53.692;10.168;2023-04-25T05:01:37;18.63;;;3.63;;
27985;SDS011;15453;53.692;10.168;2023-04-25T05:04:02;13.50;;;3.38;;
27985;SDS011;15453;53.692;10.168;2023-04-25T05:06:29;11.05;;;3.08;;
27985;SDS011;15453;53.692;10.168;2023-04-25T05:08:54;15.80;;;3.65;;
27985;SDS011;15453;53.692;10.168;2023-04-25T05:11:23;18.77;;;3.67;;
27985;SDS011;15453;53.692;10.168;2023-04-25T05:13:49;13.25;;;3.13;;
27985;SDS011;15453;53.692;10.168;2023-04-25T05:16:16;13.98;;;3.83;;
27985;SDS011;15453;53.692;10.168;2023-04-25T05:18:41;12.77;;;3.30;;
27985;SDS011;15453;53.692;10.168;2023-04-25T05:21:07;14.70;;;3.10;;
27985;SDS011;15453;53.692;10.168;2023-04-25T05:23:32;21.40;;;3.90;;
27985;SDS011;15453;53.692;10.168;2023-04-25T05:25:58;17.05;;;3.15;;
27985;SDS011;15453;53.692;10.168;2023-04-25T05:28:23;16.25;;;3.20;;
27985;SDS011;15453;53.692;10.168;2023-04-25T05:30:48;15.20;;;2.90;;
27985;SDS011;15453;53.692;10.168;2023-04-25T05:33:14;17.88;;;2.90;;
27985;SDS011;15453;53.692;10.168;2023-04-25T05:35:40;12.73;;;2.85;;
27985;SDS011;15453;53.692;10.168;2023-04-25T05:38:05;16.85;;;3.67;;
27985;SDS011;15453;53.692;10.168;2023-04-25T05:40:31;13.32;;;3.00;;
27985;SDS011;15453;53.692;10.168;2023-04-25T05:42:56;14.30;;;3.17;;
27985;SDS011;15453;53.692;10.168;2023-04-25T05:45:22;14.50;;;3.13;;
27985;SDS011;15453;53.692;10.168;2023-04-25T05:47:47;10.27;;;2.58;;
27985;SDS011;15453;53.692;10.168;2023-04-25T05:50:12;12.25;;;3.53;;
27985;SDS011;15453;53.692;10.168;2023-04-25T05:52:37;15.35;;;3.00;;
27985;SDS011;15453;53.692;10.168;2023-04-25T05:55:03;13.65;;;3.65;;
27985;SDS011;15453;53.692;10.168;2023-04-25T05:57:29;11.50;;;2.50;;
27985;SDS011;15453;53.692;10.168;2023-04-25T05:59:54;10.43;;;3.00;;
27985;SDS011;15453;53.692;10.168;2023-04-25T06:02:20;15.25;;;3.20;;
27985;SDS011;15453;53.692;10.168;2023-04-25T06:04:46;8.70;;;2.53;;
27985;SDS011;15453;53.692;10.168;2023-04-25T06:07:12;10.57;;;2.65;;
27985;SDS011;15453;53.692;10.168;2023-04-25T06:09:37;15.88;;;3.15;;
27985;SDS011;15453;53.692;10.168;2023-04-25T06:12:04;13.35;;;2.95;;
27985;SDS011;15453;53.692;10.168;2023-04-25T06:14:30;11.00;;;2.50;;
27985;SDS011;15453;53.692;10.168;2023-04-25T06:16:55;10.98;;;3.00;;
27985;SDS011;15453;53.692;10.168;2023-04-25T06:19:21;13.73;;;2.90;;
27985;SDS011;15453;53.692;10.168;2023-04-25T06:21:46;10.95;;;2.72;;
27985;SDS011;15453;53.692;10.168;2023-04-25T06:24:12;18.35;;;3.40;;
27985;SDS011;15453;53.692;10.168;2023-04-25T06:26:37;12.52;;;2.55;;
27985;SDS011;15453;53.692;10.168;2023-04-25T06:29:02;15.45;;;2.75;;
27985;SDS011;15453;53.692;10.168;2023-04-25T06:31:27;11.57;;;3.00;;
27985;SDS011;15453;53.692;10.168;2023-04-25T06:33:54;17.33;;;3.80;;
27985;SDS011;15453;53.692;10.168;2023-04-25T06:36:19;13.15;;;2.95;;
27985;SDS011;15453;53.692;10.168;2023-04-25T06:38:53;12.55;;;3.08;;
27985;SDS011;15453;53.692;10.168;2023-04-25T06:41:18;10.52;;;2.50;;
27985;SDS011;15453;53.692;10.168;2023-04-25T06:43:43;14.30;;;2.80;;
27985;SDS011;15453;53.692;10.168;2023-04-25T06:46:09;11.02;;;2.90;;
27985;SDS011;15453;53.692;10.168;2023-04-25T06:48:34;16.65;;;2.80;;
27985;SDS011;15453;53.692;10.168;2023-04-25T06:50:59;14.48;;;3.40;;
27985;SDS011;15453;53.692;10.168;2023-04-25T06:53:25;13.43;;;3.53;;
27985;SDS011;15453;53.692;10.168;2023-04-25T06:55:50;15.25;;;3.10;;
27985;SDS011;15453;53.692;10.168;2023-04-25T06:58:16;20.10;;;4.63;;
27985;SDS011;15453;53.692;10.168;2023-04-25T07:00:41;13.57;;;3.20;;
27985;SDS011;15453;53.692;10.168;2023-04-25T07:03:06;16.00;;;3.78;;
27985;SDS011;15453;53.692;10.168;2023-04-25T07:05:32;16.30;;;3.92;;
27985;SDS011;15453;53.692;10.168;2023-04-25T07:07:57;18.05;;;3.63;;
27985;SDS011;15453;53.692;10.168;2023-04-25T07:10:22;9.93;;;2.60;;
27985;SDS011;15453;53.692;10.168;2023-04-25T07:12:47;20.52;;;4.15;;
27985;SDS011;15453;53.692;10.168;2023-04-25T07:15:13;11.10;;;2.63;;
27985;SDS011;15453;53.692;10.168;2023-04-25T07:17:38;10.65;;;2.75;;
27985;SDS011;15453;53.692;10.168;2023-04-25T07:20:04;14.30;;;2.78;;
27985;SDS011;15453;53.692;10.168;2023-04-25T07:22:30;12.43;;;2.78;;
27985;SDS011;15453;53.692;10.168;2023-04-25T07:24:56;9.50;;;2.80;;
27985;SDS011;15453;53.692;10.168;2023-04-25T07:27:21;11.15;;;2.78;;
27985;SDS011;15453;53.692;10.168;2023-04-25T07:29:46;9.20;;;2.63;;
27985;SDS011;15453;53.692;10.168;2023-04-25T07:32:11;14.10;;;3.15;;
27985;SDS011;15453;53.692;10.168;2023-04-25T07:34:38;12.55;;;2.45;;
27985;SDS011;15453;53.692;10.168;2023-04-25T07:37:03;7.15;;;2.15;;
27985;SDS011;15453;53.692;10.168;2023-04-25T07:39:29;11.82;;;2.08;;
27985;SDS011;15453;53.692;10.168;2023-04-25T07:41:55;7.07;;;2.45;;
27985;SDS011;15453;53.692;10.168;2023-04-25T07:44:21;9.27;;;2.42;;
27985;SDS011;15453;53.692;10.168;2023-04-25T07:46:46;14.43;;;2.55;;
27985;SDS011;15453;53.692;10.168;2023-04-25T07:49:11;6.55;;;1.70;;
27985;SDS011;15453;53.692;10.168;2023-04-25T07:51:37;12.13;;;2.40;;
27985;SDS011;15453;53.692;10.168;2023-04-25T07:54:02;11.32;;;1.98;;
27985;SDS011;15453;53.692;10.168;2023-04-25T07:56:27;11.00;;;3.45;;
27985;SDS011;15453;53.692;10.168;2023-04-25T07:58:53;15.73;;;2.67;;
27985;SDS011;15453;53.692;10.168;2023-04-25T08:01:18;14.65;;;3.10;;
27985;SDS011;15453;53.692;10.168;2023-04-25T08:03:45;10.68;;;2.22;;
27985;SDS011;15453;53.692;10.168;2023-04-25T08:06:11;12.23;;;2.65;;
27985;SDS011;15453;53.692;10.168;2023-04-25T08:08:36;8.65;;;2.42;;
27985;SDS011;15453;53.692;10.168;2023-04-25T08:11:01;16.67;;;3.22;;
27985;SDS011;15453;53.692;10.168;2023-04-25T08:13:26;18.38;;;3.08;;
27985;SDS011;15453;53.692;10.168;2023-04-25T08:15:52;9.80;;;2.28;;
27985;SDS011;15453;53.692;10.168;2023-04-25T08:18:17;11.15;;;2.47;;
27985;SDS011;15453;53.692;10.168;2023-04-25T08:20:42;12.57;;;2.95;;
27985;SDS011;15453;53.692;10.168;2023-04-25T08:23:08;12.70;;;2.80;;
27985;SDS011;15453;53.692;10.168;2023-04-25T08:25:33;11.15;;;2.35;;
27985;SDS011;15453;53.692;10.168;2023-04-25T08:27:58;14.65;;;2.80;;
27985;SDS011;15453;53.692;10.168;2023-04-25T08:30:24;9.35;;;2.28;;
27985;SDS011;15453;53.692;10.168;2023-04-25T08:32:49;11.73;;;2.30;;
27985;SDS011;15453;53.692;10.168;2023-04-25T08:35:15;11.45;;;2.42;;
27985;SDS011;15453;53.692;10.168;2023-04-25T08:37:41;7.82;;;2.10;;
27985;SDS011;15453;53.692;10.168;2023-04-25T08:40:07;10.48;;;2.75;;
27985;SDS011;15453;53.692;10.168;2023-04-25T08:45:02;12.35;;;2.15;;
27985;SDS011;15453;53.692;10.168;2023-04-25T08:47:28;9.55;;;2.35;;
27985;SDS011;15453;53.692;10.168;2023-04-25T08:49:58;10.45;;;2.78;;
27985;SDS011;15453;53.692;10.168;2023-04-25T08:52:24;11.20;;;2.13;;
27985;SDS011;15453;53.692;10.168;2023-04-25T08:54:55;10.52;;;2.05;;
27985;SDS011;15453;53.692;10.168;2023-04-25T08:57:22;9.00;;;1.98;;
27985;SDS011;15453;53.692;10.168;2023-04-25T08:59:48;13.55;;;2.30;;
27985;SDS011;15453;53.692;10.168;2023-04-25T09:02:13;9.10;;;2.55;;
27985;SDS011;15453;53.692;10.168;2023-04-25T09:04:42;14.02;;;2.50;;
27985;SDS011;15453;53.692;10.168;2023-04-25T09:07:08;14.00;;;2.80;;
27985;SDS011;15453;53.692;10.168;2023-04-25T09:09:34;11.50;;;2.38;;
27985;SDS011;15453;53.692;10.168;2023-04-25T09:12:00;15.75;;;2.85;;
27985;SDS011;15453;53.692;10.168;2023-04-25T09:14:26;13.73;;;2.40;;
27985;SDS011;15453;53.692;10.168;2023-04-25T09:17:03;9.65;;;2.55;;
27985;SDS011;15453;53.692;10.168;2023-04-25T09:19:33;12.90;;;2.75;;
27985;SDS011;15453;53.692;10.168;2023-04-25T09:22:01;10.82;;;1.90;;
27985;SDS011;15453;53.692;10.168;2023-04-25T09:27:05;12.13;;;2.60;;
27985;SDS011;15453;53.692;10.168;2023-04-25T09:29:38;12.43;;;2.17;;
27985;SDS011;15453;53.692;10.168;2023-04-25T09:32:21;13.80;;;2.75;;
27985;SDS011;15453;53.692;10.168;2023-04-25T09:34:48;12.57;;;2.25;;
27985;SDS011;15453;53.692;10.168;2023-04-25T09:39:45;11.75;;;2.50;;
27985;SDS011;15453;53.692;10.168;2023-04-25T09:42:14;13.98;;;2.45;;
27985;SDS011;15453;53.692;10.168;2023-04-25T09:44:41;9.13;;;1.92;;
27985;SDS011;15453;53.692;10.168;2023-04-25T09:47:10;10.70;;;2.10;;
27985;SDS011;15453;53.692;10.168;2023-04-25T09:49:38;8.10;;;1.70;;
27985;SDS011;15453;53.692;10.168;2023-04-25T09:52:06;8.43;;;2.17;;
27985;SDS011;15453;53.692;10.168;2023-04-25T09:54:31;14.43;;;2.00;;
27985;SDS011;15453;53.692;10.168;2023-04-25T09:56:56;7.20;;;1.83;;
27985;SDS011;15453;53.692;10.168;2023-04-25T09:59:25;18.83;;;2.28;;
27985;SDS011;15453;53.692;10.168;2023-04-25T10:01:52;10.68;;;2.40;;
27985;SDS011;15453;53.692;10.168;2023-04-25T10:04:22;11.23;;;2.30;;
27985;SDS011;15453;53.692;10.168;2023-04-25T10:06:50;9.00;;;1.88;;
27985;SDS011;15453;53.692;10.168;2023-04-25T10:09:19;9.82;;;2.10;;
27985;SDS011;15453;53.692;10.168;2023-04-25T10:11:46;10.23;;;2.40;;
27985;SDS011;15453;53.692;10.168;2023-04-25T10:14:15;9.50;;;1.80;;
27985;SDS011;15453;53.692;10.168;2023-04-25T10:16:41;7.63;;;2.08;;
27985;SDS011;15453;53.692;10.168;2023-04-25T10:19:07;7.25;;;1.80;;
27985;SDS011;15453;53.692;10.168;2023-04-25T10:21:34;6.82;;;1.88;;
27985;SDS011;15453;53.692;10.168;2023-04-25T10:24:02;9.25;;;2.60;;
27985;SDS011;15453;53.692;10.168;2023-04-25T10:26:28;9.38;;;2.22;;
27985;SDS011;15453;53.692;10.168;2023-04-25T10:28:58;8.43;;;1.83;;
27985;SDS011;15453;53.692;10.168;2023-04-25T10:31:25;8.95;;;1.80;;
27985;SDS011;15453;53.692;10.168;2023-04-25T10:33:51;7.78;;;2.40;;
27985;SDS011;15453;53.692;10.168;2023-04-25T10:36:25;8.48;;;1.70;;
27985;SDS011;15453;53.692;10.168;2023-04-25T10:38:52;7.65;;;1.50;;
27985;SDS011;15453;53.692;10.168;2023-04-25T10:41:18;7.80;;;1.80;;
27985;SDS011;15453;53.692;10.168;2023-04-25T10:43:45;9.82;;;2.13;;
27985;SDS011;15453;53.692;10.168;2023-04-25T10:46:15;7.18;;;2.30;;
27985;SDS011;15453;53.692;10.168;2023-04-25T10:48:47;12.95;;;2.72;;
27985;SDS011;15453;53.692;10.168;2023-04-25T10:51:18;9.85;;;2.05;;
27985;SDS011;15453;53.692;10.168;2023-04-25T10:53:45;9.70;;;2.53;;
27985;SDS011;15453;53.692;10.168;2023-04-25T10:56:11;8.98;;;2.05;;
27985;SDS011;15453;53.692;10.168;2023-04-25T10:58:52;7.88;;;1.88;;
27985;SDS011;15453;53.692;10.168;2023-04-25T11:01:28;6.25;;;1.70;;
27985;SDS011;15453;53.692;10.168;2023-04-25T11:04:01;7.90;;;2.08;;
27985;SDS011;15453;53.692;10.168;2023-04-25T11:06:40;10.02;;;1.98;;
27985;SDS011;15453;53.692;10.168;2023-04-25T11:09:16;10.33;;;1.97;;
27985;SDS011;15453;53.692;10.168;2023-04-25T11:11:41;7.57;;;1.40;;
27985;SDS011;15453;53.692;10.168;2023-04-25T11:14:06;6.68;;;1.63;;
27985;SDS011;15453;53.692;10.168;2023-04-25T11:16:32;8.30;;;1.70;;
27985;SDS011;15453;53.692;10.168;2023-04-25T11:18:58;7.53;;;1.67;;
27985;SDS011;15453;53.692;10.168;2023-04-25T11:21:24;9.32;;;1.80;;
27985;SDS011;15453;53.692;10.168;2023-04-25T11:23:52;7.82;;;1.85;;
27985;SDS011;15453;53.692;10.168;2023-04-25T11:26:19;8.63;;;1.60;;
27985;SDS011;15453;53.692;10.168;2023-04-25T11:28:45;9.68;;;1.83;;
27985;SDS011;15453;53.692;10.168;2023-04-25T11:31:10;6.88;;;1.95;;
27985;SDS011;15453;53.692;10.168;2023-04-25T11:33:35;8.27;;;1.95;;
27985;SDS011;15453;53.692;10.168;2023-04-25T11:36:00;7.75;;;1.67;;
27985;SDS011;15453;53.692;10.168;2023-04-25T11:38:26;8.20;;;2.10;;
27985;SDS011;15453;53.692;10.168;2023-04-25T11:40:52;9.07;;;1.95;;
27985;SDS011;15453;53.692;10.168;2023-04-25T11:43:19;9.40;;;2.30;;
27985;SDS011;15453;53.692;10.168;2023-04-25T11:45:46;9.07;;;2.15;;
27985;SDS011;15453;53.692;10.168;2023-04-25T11:48:12;8.48;;;1.58;;
27985;SDS011;15453;53.692;10.168;2023-04-25T11:50:38;6.75;;;1.77;;
27985;SDS011;15453;53.692;10.168;2023-04-25T11:53:04;12.65;;;2.42;;
27985;SDS011;15453;53.692;10.168;2023-04-25T11:55:31;10.13;;;2.13;;
27985;SDS011;15453;53.692;10.168;2023-04-25T11:57:56;12.52;;;1.50;;
27985;SDS011;15453;53.692;10.168;2023-04-25T12:00:25;8.40;;;1.30;;
27985;SDS011;15453;53.692;10.168;2023-04-25T12:02:52;10.18;;;1.40;;
27985;SDS011;15453;53.692;10.168;2023-04-25T12:05:19;9.50;;;1.88;;
27985;SDS011;15453;53.692;10.168;2023-04-25T12:07:45;6.60;;;1.60;;
27985;SDS011;15453;53.692;10.168;2023-04-25T12:10:12;8.43;;;1.50;;
27985;SDS011;15453;53.692;10.168;2023-04-25T12:12:41;6.20;;;1.45;;
27985;SDS011;15453;53.692;10.168;2023-04-25T12:17:40;7.88;;;1.63;;
27985;SDS011;15453;53.692;10.168;2023-04-25T12:20:07;8.85;;;2.28;;
27985;SDS011;15453;53.692;10.168;2023-04-25T12:22:44;6.47;;;1.60;;
27985;SDS011;15453;53.692;10.168;2023-04-25T12:25:12;9.00;;;1.60;;
27985;SDS011;15453;53.692;10.168;2023-04-25T12:27:37;6.20;;;1.20;;
27985;SDS011;15453;53.692;10.168;2023-04-25T12:30:06;8.63;;;2.08;;
27985;SDS011;15453;53.692;10.168;2023-04-25T12:32:32;5.50;;;1.52;;
27985;SDS011;15453;53.692;10.168;2023-04-25T12:34:57;9.18;;;1.45;;
27985;SDS011;15453;53.692;10.168;2023-04-25T12:37:22;9.63;;;1.85;;
27985;SDS011;15453;53.692;10.168;2023-04-25T12:39:47;12.00;;;1.83;;
27985;SDS011;15453;53.692;10.168;2023-04-25T12:42:13;10.60;;;1.50;;
27985;SDS011;15453;53.692;10.168;2023-04-25T12:44:38;7.72;;;1.88;;
27985;SDS011;15453;53.692;10.168;2023-04-25T12:47:04;7.70;;;2.00;;
27985;SDS011;15453;53.692;10.168;2023-04-25T12:49:30;6.38;;;1.58;;
27985;SDS011;15453;53.692;10.168;2023-04-25T12:51:55;4.28;;;1.25;;
27985;SDS011;15453;53.692;10.168;2023-04-25T12:54:21;7.10;;;1.23;;
27985;SDS011;15453;53.692;10.168;2023-04-25T12:56:46;4.93;;;1.27;;
27985;SDS011;15453;53.692;10.168;2023-04-25T12:59:12;9.73;;;1.92;;
27985;SDS011;15453;53.692;10.168;2023-04-25T13:01:37;4.78;;;1.30;;
27985;SDS011;15453;53.692;10.168;2023-04-25T13:04:03;7.68;;;1.90;;
27985;SDS011;15453;53.692;10.168;2023-04-25T13:06:29;6.45;;;1.40;;
27985;SDS011;15453;53.692;10.168;2023-04-25T13:08:55;7.60;;;1.67;;
27985;SDS011;15453;53.692;10.168;2023-04-25T13:11:21;7.15;;;2.05;;
27985;SDS011;15453;53.692;10.168;2023-04-25T13:13:46;5.97;;;1.45;;
27985;SDS011;15453;53.692;10.168;2023-04-25T13:16:11;7.30;;;1.50;;
27985;SDS011;15453;53.692;10.168;2023-04-25T13:18:39;7.82;;;1.85;;
27985;SDS011;15453;53.692;10.168;2023-04-25T13:21:04;6.05;;;1.73;;
27985;SDS011;15453;53.692;10.168;2023-04-25T13:23:30;8.63;;;1.58;;
27985;SDS011;15453;53.692;10.168;2023-04-25T13:25:55;7.55;;;1.90;;
27985;SDS011;15453;53.692;10.168;2023-04-25T13:28:23;9.82;;;2.05;;
27985;SDS011;15453;53.692;10.168;2023-04-25T13:30:48;8.68;;;2.00;;
27985;SDS011;15453;53.692;10.168;2023-04-25T13:33:14;11.25;;;2.70;;
27985;SDS011;15453;53.692;10.168;2023-04-25T13:35:40;7.78;;;1.73;;
27985;SDS011;15453;53.692;10.168;2023-04-25T13:38:05;11.32;;;2.15;;
27985;SDS011;15453;53.692;10.168;2023-04-25T13:40:31;10.82;;;2.30;;
27985;SDS011;15453;53.692;10.168;2023-04-25T13:42:57;20.23;;;3.22;;
27985;SDS011;15453;53.692;10.168;2023-04-25T13:45:22;11.55;;;2.35;;
27985;SDS011;15453;53.692;10.168;2023-04-25T13:47:47;15.13;;;2.25;;
27985;SDS011;15453;53.692;10.168;2023-04-25T13:50:13;9.68;;;2.33;;
27985;SDS011;15453;53.692;10.168;2023-04-25T13:52:39;9.70;;;1.98;;
27985;SDS011;15453;53.692;10.168;2023-04-25T13:55:05;10.85;;;2.10;;
27985;SDS011;15453;53.692;10.168;2023-04-25T13:57:32;8.63;;;1.80;;
27985;SDS011;15453;53.692;10.168;2023-04-25T13:59:57;6.80;;;1.83;;
27985;SDS011;15453;53.692;10.168;2023-04-25T14:02:23;10.60;;;1.95;;
27985;SDS011;15453;53.692;10.168;2023-04-25T14:04:48;9.55;;;2.10;;
27985;SDS011;15453;53.692;10.168;2023-04-25T14:07:13;8.75;;;2.22;;
27985;SDS011;15453;53.692;10.168;2023-04-25T14:09:42;5.35;;;1.83;;
27985;SDS011;15453;53.692;10.168;2023-04-25T14:12:08;9.65;;;2.20;;
27985;SDS011;15453;53.692;10.168;2023-04-25T14:14:33;5.70;;;1.63;;
27985;SDS011;15453;53.692;10.168;2023-04-25T14:16:58;9.40;;;2.03;;
27985;SDS011;15453;53.692;10.168;2023-04-25T14:19:24;7.43;;;1.70;;
27985;SDS011;15453;53.692;10.168;2023-04-25T14:21:49;11.02;;;1.55;;
27985;SDS011;15453;53.692;10.168;2023-04-25T14:24:14;6.93;;;1.92;;
27985;SDS011;15453;53.692;10.168;2023-04-25T14:26:40;11.48;;;2.00;;
27985;SDS011;15453;53.692;10.168;2023-04-25T14:29:07;8.32;;;1.75;;